Time,TemperatureF,DewpointF,PressureIn,WindDirection,WindDirectionDegrees,WindSpeedMPH,WindSpeedGustMPH,Humidity,HourlyPrecipIn,Conditions,Clouds,dailyrainin,SoftwareType,DateUTC
2013-01-07 00:03:00,72.0,68.0,30.09,SSE,150,0.0,0.0,88,0.00,,,0.07,,2013-01-07 05:03:00,
2013-01-07 00:12:00,72.0,68.0,30.09,SSE,150,0.0,0.0,88,0.00,,,0.07,,2013-01-07 05:12:00,
2013-01-07 00:22:00,72.0,68.0,30.09,SSE,150,0.0,0.0,88,0.00,,,0.07,,2013-01-07 05:22:00,
2013-01-07 00:33:00,72.0,69.0,30.09,SSE,150,0.0,0.0,89,0.00,,,0.07,,2013-01-07 05:33:00,
2013-01-07 00:42:00,72.0,69.0,30.09,SSE,150,0.0,0.0,89,0.00,,,0.07,,2013-01-07 05:42:00,
2013-01-07 00:52:00,71.0,68.0,30.09,SSE,150,0.0,0.0,89,0.00,,,0.07,,2013-01-07 05:52:00,
2013-01-07 01:02:00,71.0,68.0,30.08,SSE,150,0.0,0.0,90,0.00,,,0.07,,2013-01-07 06:02:00,
2013-01-07 01:12:00,71.0,68.0,30.08,SSE,150,0.0,0.0,90,0.00,,,0.07,,2013-01-07 06:12:00,
2013-01-07 01:22:00,71.0,68.0,30.08,SSE,150,0.0,1.0,90,0.00,,,0.07,,2013-01-07 06:22:00,
2013-01-07 01:32:00,71.0,68.0,30.08,SSE,150,0.0,2.0,91,0.00,,,0.06,,2013-01-07 06:32:00,
2013-01-07 01:42:00,71.0,68.0,30.08,SSE,150,0.0,2.0,91,0.00,,,0.06,,2013-01-07 06:42:00,
2013-01-07 01:52:00,70.0,67.0,30.08,SSE,150,0.0,1.0,91,0.00,,,0.06,,2013-01-07 06:52:00,
2013-01-07 02:02:00,70.0,67.0,30.07,SSE,149,0.0,2.0,91,0.00,,,0.06,,2013-01-07 07:02:00,
2013-01-07 02:12:00,70.0,67.0,30.07,SSE,149,0.0,2.0,91,0.00,,,0.06,,2013-01-07 07:12:00,
2013-01-07 02:22:00,70.0,67.0,30.07,SSE,149,1.0,3.0,91,0.00,,,0.06,,2013-01-07 07:22:00,
2013-01-07 02:33:00,70.0,67.0,30.06,NNW,340,1.0,4.0,91,0.00,,,0.06,,2013-01-07 07:33:00,
2013-01-07 02:42:00,70.0,67.0,30.06,NNW,340,1.0,4.0,91,0.00,,,0.06,,2013-01-07 07:42:00,
2013-01-07 02:52:00,70.0,68.0,30.06,NNW,340,0.0,3.0,92,0.00,,,0.06,,2013-01-07 07:52:00,
2013-01-07 03:03:00,69.0,67.0,30.06,NNW,340,0.0,2.0,92,0.00,,,0.06,,2013-01-07 08:03:00,
2013-01-07 03:12:00,69.0,67.0,30.06,NNW,340,0.0,2.0,92,0.00,,,0.06,,2013-01-07 08:12:00,
2013-01-07 03:22:00,69.0,67.0,30.06,NNW,340,2.0,4.0,92,0.00,,,0.06,,2013-01-07 08:22:00,
2013-01-07 03:32:00,69.0,67.0,30.07,NNW,340,2.0,5.0,93,0.00,,,0.06,,2013-01-07 08:32:00,
2013-01-07 03:42:00,69.0,67.0,30.07,NNW,340,2.0,5.0,93,0.00,,,0.06,,2013-01-07 08:42:00,
2013-01-07 03:53:00,69.0,67.0,30.06,NNW,346,1.0,5.0,93,0.00,,,0.06,,2013-01-07 08:53:00,
2013-01-07 04:02:00,69.0,67.0,30.06,NNW,346,0.0,2.0,93,0.00,,,0.06,,2013-01-07 09:02:00,
2013-01-07 04:12:00,69.0,67.0,30.06,NNW,346,0.0,2.0,93,0.00,,,0.06,,2013-01-07 09:12:00,
2013-01-07 04:22:00,69.0,67.0,30.05,NNW,346,0.0,5.0,93,0.00,,,0.06,,2013-01-07 09:22:00,
2013-01-07 04:32:00,69.0,67.0,30.05,NNW,346,0.0,3.0,93,0.00,,,0.06,,2013-01-07 09:32:00,
2013-01-07 04:42:00,69.0,67.0,30.05,NNW,346,0.0,3.0,93,0.00,,,0.06,,2013-01-07 09:42:00,
2013-01-07 04:53:00,69.0,67.0,30.05,NNW,346,0.0,0.0,93,0.00,,,0.06,,2013-01-07 09:53:00,
2013-01-07 05:02:00,69.0,67.0,30.05,NNW,346,0.0,1.0,93,0.00,,,0.06,,2013-01-07 10:02:00,
2013-01-07 05:12:00,69.0,67.0,30.06,NNW,346,0.0,0.0,93,0.00,,,0.06,,2013-01-07 10:12:00,
2013-01-07 05:22:00,69.0,67.0,30.06,NNW,346,0.0,0.0,93,0.00,,,0.06,,2013-01-07 10:22:00,
2013-01-07 05:32:00,69.0,67.0,30.06,NNW,346,0.0,3.0,93,0.00,,,0.06,,2013-01-07 10:32:00,
2013-01-07 05:42:00,69.0,67.0,30.06,NNW,346,0.0,3.0,93,0.00,,,0.06,,2013-01-07 10:42:00,
2013-01-07 05:52:00,69.0,67.0,30.07,NNW,346,0.0,3.0,93,0.00,,,0.06,,2013-01-07 10:52:00,
2013-01-07 06:02:00,69.0,67.0,30.07,NNW,346,0.0,3.0,93,0.00,,,0.06,,2013-01-07 11:02:00,
2013-01-07 06:12:00,69.0,67.0,30.07,NNW,346,0.0,3.0,93,0.00,,,0.06,,2013-01-07 11:12:00,
2013-01-07 06:23:00,69.0,67.0,30.07,NNW,346,0.0,4.0,93,0.00,,,0.06,,2013-01-07 11:23:00,
2013-01-07 06:33:00,69.0,67.0,30.07,NNW,346,1.0,3.0,93,0.00,,,0.00,,2013-01-07 11:33:00,
2013-01-07 06:43:00,69.0,67.0,30.07,NNW,346,1.0,3.0,93,0.00,,,0.00,,2013-01-07 11:43:00,
2013-01-07 06:53:00,69.0,67.0,30.08,NNW,346,1.0,3.0,93,0.00,,,0.00,,2013-01-07 11:53:00,
2013-01-07 07:03:00,69.0,67.0,30.08,NNW,347,0.0,2.0,92,0.00,,,0.00,,2013-01-07 12:03:00,
2013-01-07 07:12:00,69.0,67.0,30.09,NNW,347,0.0,2.0,92,0.00,,,0.00,,2013-01-07 12:12:00,
2013-01-07 07:22:00,69.0,67.0,30.09,NNW,347,0.0,2.0,92,0.00,,,0.00,,2013-01-07 12:22:00,
2013-01-07 07:33:00,69.0,67.0,30.09,NNW,347,0.0,3.0,92,0.00,,,0.00,,2013-01-07 12:33:00,
2013-01-07 07:43:00,69.0,67.0,30.09,NNW,347,0.0,3.0,92,0.00,,,0.00,,2013-01-07 12:43:00,
2013-01-07 07:53:00,69.0,67.0,30.10,NNW,347,1.0,3.0,92,0.00,,,0.00,,2013-01-07 12:53:00,
2013-01-07 08:02:00,69.0,67.0,30.10,NNW,347,0.0,2.0,92,0.00,,,0.00,,2013-01-07 13:02:00,
2013-01-07 08:12:00,69.0,67.0,30.10,NNW,347,0.0,2.0,92,0.00,,,0.00,,2013-01-07 13:12:00,
2013-01-07 08:23:00,69.0,67.0,30.11,NNW,347,0.0,1.0,92,0.00,,,0.00,,2013-01-07 13:23:00,
2013-01-07 08:33:00,69.0,67.0,30.11,NNW,347,0.0,3.0,92,0.00,,,0.00,,2013-01-07 13:33:00,
2013-01-07 08:42:00,69.0,67.0,30.11,NNW,347,0.0,3.0,92,0.00,,,0.00,,2013-01-07 13:42:00,
2013-01-07 08:53:00,70.0,67.0,30.12,NNW,347,1.0,4.0,91,0.00,,,0.00,,2013-01-07 13:53:00,
2013-01-07 09:03:00,70.0,67.0,30.12,NNW,341,2.0,5.0,90,0.00,,,0.00,,2013-01-07 14:03:00,
2013-01-07 09:12:00,70.0,67.0,30.13,NNW,341,1.0,4.0,90,0.00,,,0.00,,2013-01-07 14:12:00,
2013-01-07 09:23:00,70.0,67.0,30.13,NNW,341,1.0,4.0,90,0.00,,,0.00,,2013-01-07 14:23:00,
2013-01-07 09:33:00,70.0,67.0,30.14,NNW,341,0.0,1.0,90,0.00,,,0.00,,2013-01-07 14:33:00,
2013-01-07 09:43:00,70.0,67.0,30.14,NNW,341,0.0,1.0,90,0.00,,,0.00,,2013-01-07 14:43:00,
2013-01-07 09:53:00,70.0,67.0,30.14,NNW,341,0.0,3.0,89,0.01,,,0.01,,2013-01-07 14:53:00,
2013-01-07 10:03:00,71.0,68.0,30.14,NNW,341,0.0,0.0,90,0.10,,,0.10,,2013-01-07 15:03:00,
2013-01-07 10:12:00,71.0,68.0,30.14,NNW,341,0.0,0.0,90,0.10,,,0.10,,2013-01-07 15:12:00,
2013-01-07 10:22:00,71.0,68.0,30.14,NNW,341,0.0,1.0,91,0.17,,,0.17,,2013-01-07 15:22:00,
2013-01-07 10:33:00,71.0,68.0,30.15,NNW,341,0.0,2.0,91,0.19,,,0.19,,2013-01-07 15:33:00,
2013-01-07 10:43:00,71.0,68.0,30.15,NNW,341,0.0,2.0,91,0.19,,,0.19,,2013-01-07 15:43:00,
2013-01-07 10:53:00,70.0,68.0,30.14,NNW,341,0.0,3.0,92,0.18,,,0.20,,2013-01-07 15:53:00,
2013-01-07 11:02:00,70.0,68.0,30.14,NNW,341,0.0,2.0,92,0.10,,,0.20,,2013-01-07 16:02:00,
2013-01-07 11:12:00,70.0,68.0,30.14,NNW,341,0.0,2.0,92,0.10,,,0.20,,2013-01-07 16:12:00,
2013-01-07 11:22:00,70.0,68.0,30.14,NNW,341,0.0,2.0,92,0.10,,,0.20,,2013-01-07 16:22:00,
2013-01-07 11:33:00,70.0,68.0,30.13,NNW,341,0.0,2.0,92,0.01,,,0.20,,2013-01-07 16:33:00,
2013-01-07 11:43:00,70.0,68.0,30.13,NNW,341,0.0,2.0,92,0.01,,,0.20,,2013-01-07 16:43:00,
2013-01-07 11:53:00,70.0,68.0,30.13,NNW,341,0.0,3.0,92,0.05,,,0.25,,2013-01-07 16:53:00,
2013-01-07 12:03:00,70.0,68.0,30.12,NNW,339,2.0,6.0,92,0.08,,,0.28,,2013-01-07 17:03:00,
2013-01-07 12:12:00,70.0,68.0,30.12,NNW,339,2.0,6.0,92,0.08,,,0.28,,2013-01-07 17:12:00,
2013-01-07 12:23:00,69.0,67.0,30.11,NNW,342,1.0,6.0,92,0.08,,,0.28,,2013-01-07 17:23:00,
2013-01-07 12:33:00,70.0,68.0,30.10,NNW,342,2.0,7.0,92,0.08,,,0.28,,2013-01-07 17:33:00,
2013-01-07 12:42:00,70.0,68.0,30.10,NNW,342,2.0,7.0,92,0.08,,,0.28,,2013-01-07 17:42:00,
2013-01-07 12:53:00,70.0,68.0,30.09,North,355,3.0,7.0,92,0.03,,,0.28,,2013-01-07 17:53:00,
2013-01-07 13:03:00,70.0,68.0,30.08,NNW,336,3.0,7.0,92,0.00,,,0.28,,2013-01-07 18:03:00,
2013-01-07 13:12:00,70.0,68.0,30.08,NNW,336,3.0,7.0,92,0.00,,,0.28,,2013-01-07 18:12:00,
2013-01-07 13:23:00,70.0,68.0,30.08,NNW,336,3.0,7.0,92,0.00,,,0.28,,2013-01-07 18:23:00,
2013-01-07 13:33:00,71.0,68.0,30.07,NNW,348,3.0,7.0,90,0.00,,,0.28,,2013-01-07 18:33:00,
2013-01-07 13:42:00,72.0,69.0,30.06,NNW,348,2.0,8.0,89,0.00,,,0.28,,2013-01-07 18:42:00,
2013-01-07 13:53:00,72.0,69.0,30.06,NNW,348,2.0,8.0,89,0.00,,,0.28,,2013-01-07 18:53:00,
2013-01-07 14:03:00,73.0,69.0,30.07,NNW,345,2.0,6.0,87,0.00,,,0.28,,2013-01-07 19:03:00,
2013-01-07 14:12:00,73.0,69.0,30.07,NNW,345,2.0,6.0,87,0.00,,,0.28,,2013-01-07 19:12:00,
2013-01-07 14:23:00,74.0,68.0,30.06,NNW,343,3.0,8.0,82,0.00,,,0.28,,2013-01-07 19:23:00,
2013-01-07 14:33:00,75.0,68.0,30.06,NNW,343,3.0,6.0,78,0.00,,,0.28,,2013-01-07 19:33:00,
2013-01-07 14:43:00,75.0,68.0,30.06,NNW,343,3.0,6.0,78,0.00,,,0.28,,2013-01-07 19:43:00,
2013-01-07 14:53:00,76.0,69.0,30.05,NNE,28,1.0,7.0,78,0.00,,,0.28,,2013-01-07 19:53:00,
2013-01-07 15:03:00,76.0,69.0,30.05,North,351,1.0,5.0,79,0.00,,,0.28,,2013-01-07 20:03:00,
2013-01-07 15:12:00,76.0,69.0,30.05,North,351,1.0,5.0,79,0.00,,,0.28,,2013-01-07 20:12:00,
2013-01-07 15:23:00,76.0,69.0,30.06,NNW,341,1.0,5.0,79,0.00,,,0.28,,2013-01-07 20:23:00,
2013-01-07 15:33:00,76.0,68.0,30.06,NE,47,0.0,5.0,76,0.00,,,0.28,,2013-01-07 20:33:00,
2013-01-07 15:42:00,76.0,68.0,30.06,NE,47,0.0,5.0,76,0.00,,,0.28,,2013-01-07 20:42:00,
2013-01-07 15:53:00,75.0,68.0,30.05,NE,38,2.0,5.0,79,0.00,,,0.28,,2013-01-07 20:53:00,
2013-01-07 16:03:00,75.0,68.0,30.05,NE,44,2.0,5.0,79,0.00,,,0.28,,2013-01-07 21:03:00,
2013-01-07 16:12:00,75.0,68.0,30.05,NE,44,2.0,5.0,79,0.00,,,0.28,,2013-01-07 21:12:00,
2013-01-07 16:23:00,75.0,67.0,30.06,North,355,1.0,5.0,77,0.00,,,0.28,,2013-01-07 21:23:00,
2013-01-07 16:33:00,75.0,66.0,30.06,North,355,2.0,6.0,74,0.00,,,0.28,,2013-01-07 21:33:00,
2013-01-07 16:43:00,75.0,66.0,30.06,North,355,2.0,6.0,74,0.00,,,0.28,,2013-01-07 21:43:00,
2013-01-07 16:53:00,76.0,67.0,30.06,North,355,0.0,5.0,74,0.00,,,0.28,,2013-01-07 21:53:00,
2013-01-07 17:03:00,75.0,67.0,30.06,North,355,0.0,3.0,75,0.00,,,0.28,,2013-01-07 22:03:00,
2013-01-07 17:12:00,75.0,67.0,30.06,North,355,0.0,3.0,75,0.00,,,0.28,,2013-01-07 22:12:00,
2013-01-07 17:23:00,75.0,68.0,30.07,NNE,15,0.0,6.0,80,0.00,,,0.28,,2013-01-07 22:23:00,
2013-01-07 17:33:00,74.0,68.0,30.07,NNE,16,1.0,4.0,81,0.00,,,0.28,,2013-01-07 22:33:00,
2013-01-07 17:43:00,74.0,68.0,30.07,NNE,16,1.0,4.0,81,0.00,,,0.28,,2013-01-07 22:43:00,
2013-01-07 17:53:00,74.0,68.0,30.07,North,9,0.0,4.0,82,0.00,,,0.28,,2013-01-07 22:53:00,
2013-01-07 18:02:00,74.0,69.0,30.08,NNE,28,0.0,4.0,84,0.00,,,0.28,,2013-01-07 23:02:00,
2013-01-07 18:12:00,74.0,69.0,30.08,NNE,28,0.0,4.0,84,0.00,,,0.28,,2013-01-07 23:12:00,
2013-01-07 18:22:00,73.0,68.0,30.08,NNW,347,2.0,6.0,85,0.00,,,0.28,,2013-01-07 23:22:00,
2013-01-07 18:33:00,73.0,69.0,30.08,NNW,333,1.0,6.0,86,0.00,,,0.28,,2013-01-07 23:33:00,
2013-01-07 18:43:00,73.0,69.0,30.08,NNW,333,1.0,6.0,86,0.00,,,0.28,,2013-01-07 23:43:00,
2013-01-07 18:53:00,73.0,69.0,30.09,NNW,345,0.0,3.0,86,0.00,,,0.28,,2013-01-07 23:53:00,
2013-01-07 19:03:00,73.0,69.0,30.09,NNW,344,0.0,6.0,86,0.00,,,0.28,,2013-01-08 00:03:00,
2013-01-07 19:12:00,73.0,69.0,30.09,NNW,344,0.0,6.0,86,0.00,,,0.28,,2013-01-08 00:12:00,
2013-01-07 19:22:00,73.0,69.0,30.09,NNW,346,0.0,3.0,86,0.00,,,0.28,,2013-01-08 00:22:00,
2013-01-07 19:33:00,73.0,68.0,30.09,ENE,78,0.0,3.0,85,0.00,,,0.28,,2013-01-08 00:33:00,
2013-01-07 19:42:00,73.0,68.0,30.09,ENE,78,0.0,3.0,85,0.00,,,0.28,,2013-01-08 00:42:00,
2013-01-07 19:53:00,73.0,68.0,30.10,WNW,301,0.0,4.0,84,0.00,,,0.28,,2013-01-08 00:53:00,
2013-01-07 20:03:00,73.0,68.0,30.10,NE,54,0.0,3.0,84,0.00,,,0.28,,2013-01-08 01:03:00,
2013-01-07 20:12:00,73.0,68.0,30.10,NE,54,0.0,3.0,84,0.00,,,0.28,,2013-01-08 01:12:00,
2013-01-07 20:22:00,73.0,68.0,30.10,NNE,19,0.0,4.0,84,0.00,,,0.28,,2013-01-08 01:22:00,
2013-01-07 20:33:00,73.0,68.0,30.11,NNE,19,0.0,2.0,84,0.00,,,0.28,,2013-01-08 01:33:00,
2013-01-07 20:42:00,73.0,68.0,30.11,NNE,19,0.0,2.0,84,0.00,,,0.28,,2013-01-08 01:42:00,
2013-01-07 20:52:00,73.0,68.0,30.11,NNE,20,0.0,2.0,84,0.00,,,0.28,,2013-01-08 01:52:00,
2013-01-07 21:02:00,73.0,68.0,30.11,North,9,0.0,3.0,84,0.00,,,0.28,,2013-01-08 02:02:00,
2013-01-07 21:12:00,73.0,68.0,30.11,North,9,0.0,3.0,84,0.00,,,0.28,,2013-01-08 02:12:00,
2013-01-07 21:22:00,73.0,68.0,30.11,NNW,346,0.0,2.0,85,0.00,,,0.28,,2013-01-08 02:22:00,
2013-01-07 21:33:00,73.0,68.0,30.11,NE,40,0.0,5.0,85,0.00,,,0.28,,2013-01-08 02:33:00,
2013-01-07 21:42:00,73.0,68.0,30.11,NE,40,0.0,5.0,85,0.00,,,0.28,,2013-01-08 02:42:00,
2013-01-07 21:53:00,73.0,68.0,30.11,ENE,76,0.0,1.0,85,0.00,,,0.28,,2013-01-08 02:53:00,
2013-01-07 22:03:00,73.0,68.0,30.11,SE,131,0.0,9.0,83,0.03,,,0.31,,2013-01-08 03:03:00,
2013-01-07 22:12:00,73.0,68.0,30.11,SE,131,0.0,9.0,83,0.03,,,0.31,,2013-01-08 03:12:00,
2013-01-07 22:22:00,72.0,68.0,30.11,NW,325,0.0,9.0,86,0.06,,,0.34,,2013-01-08 03:22:00,
2013-01-07 22:32:00,72.0,68.0,30.11,NNE,22,0.0,3.0,88,0.06,,,0.34,,2013-01-08 03:32:00,
2013-01-07 22:43:00,72.0,68.0,30.11,NNE,22,0.0,3.0,88,0.06,,,0.34,,2013-01-08 03:43:00,
2013-01-07 22:53:00,72.0,69.0,30.10,NE,34,0.0,3.0,89,0.06,,,0.34,,2013-01-08 03:53:00,
2013-01-07 23:02:00,72.0,69.0,30.10,NE,34,0.0,3.0,89,0.06,,,0.34,,2013-01-08 04:02:00,
2013-01-07 23:12:00,72.0,69.0,30.10,NE,34,0.0,3.0,89,0.06,,,0.34,,2013-01-08 04:12:00,
2013-01-07 23:22:00,72.0,69.0,30.10,NNE,22,0.0,2.0,89,0.00,,,0.34,,2013-01-08 04:22:00,
2013-01-07 23:32:00,72.0,69.0,30.09,NNE,22,0.0,1.0,89,0.00,,,0.34,,2013-01-08 04:32:00,
2013-01-07 23:43:00,72.0,69.0,30.09,NNE,22,0.0,1.0,89,0.00,,,0.34,,2013-01-08 04:43:00,
2013-01-07 23:52:00,72.0,69.0,30.09,NNE,22,0.0,1.0,89,0.00,,,0.34,,2013-01-08 04:52:00,